Time;durP1;ratioP1;P1;durP2;ratioP2;P2;SDS_P1;SDS_P2;PMS_P1;PMS_P2;Temp;Humidity;BMP_temperature;BMP_pressure;BME280_temperature;BME280_humidity;BME280_pressure;Samples;Min_cycle;Max_cycle;Signal;HPM_P1;HPM_P2
2024/04/05 00:00:39;;;;;;;;;4.00;4.00;;;;;16.50;72.01;100985.31;2028697;28;2746110;-73
2024/04/05 00:01:50;;;;;;;;;3.33;3.33;;;;;16.52;72.21;100987.84;2002887;27;2754443;-73
2024/04/05 00:03:04;;;;;;;;;2.17;2.17;;;;;16.52;71.81;100985.22;2045083;28;2737786;-73
2024/04/05 00:04:14;;;;;;;;;3.33;2.33;;;;;16.52;72.16;100985.22;2001604;28;2750265;-73
2024/04/05 00:05:25;;;;;;;;;3.67;3.67;;;;;16.49;71.78;100988.03;2039608;27;2746098;-73
2024/04/05 00:06:36;;;;;;;;;2.00;2.00;;;;;16.50;72.33;100982.66;2045608;28;2738880;-73
2024/04/05 00:07:48;;;;;;;;;3.00;2.67;;;;;16.51;72.02;100972.91;1997557;27;2754483;-73
2024/04/05 00:09:03;;;;;;;;;3.33;2.50;;;;;16.49;71.87;100974.78;2049531;28;2740890;-73
2024/04/05 00:10:13;;;;;;;;;3.00;3.00;;;;;16.50;72.17;100976.47;2001111;28;2750303;-73
2024/04/05 00:11:24;;;;;;;;;2.00;2.00;;;;;16.47;72.00;100968.72;2043908;28;2746105;-73
2024/04/05 00:12:35;;;;;;;;;6.00;4.00;;;;;16.47;71.90;100974.84;2001285;28;2756518;-73
2024/04/05 00:13:46;;;;;;;;;3.67;3.67;;;;;16.47;72.05;100969.53;2039416;28;2747600;-73
2024/04/05 00:14:57;;;;;;;;;4.67;4.67;;;;;16.47;71.91;100974.84;2039113;28;2752416;-73
2024/04/05 00:16:09;;;;;;;;;6.50;5.50;;;;;16.48;71.39;100976.56;2044172;28;2744039;-73
2024/04/05 00:17:22;;;;;;;;;6.17;3.33;;;;;16.47;71.58;100966.06;2052780;28;2749266;-73
2024/04/05 00:18:34;;;;;;;;;4.33;3.00;;;;;16.49;71.84;100974.78;2000856;27;2754981;-73
2024/04/05 00:19:47;;;;;;;;;4.33;3.00;;;;;16.46;72.06;100962.53;2053228;28;2740950;-73
2024/04/05 00:21:01;;;;;;;;;3.83;3.83;;;;;16.47;72.04;100961.59;2020506;27;2743095;-73
2024/04/05 00:22:14;;;;;;;;;4.50;3.83;;;;;16.45;71.67;100954.66;2025182;27;2745072;-73
2024/04/05 00:23:28;;;;;;;;;3.17;3.17;;;;;16.46;71.64;100956.38;2021948;27;2741970;-73
2024/04/05 00:24:38;;;;;;;;;2.00;2.00;;;;;16.47;71.73;100960.75;1997943;28;2748213;-73
2024/04/05 00:25:57;;;;;;;;;6.00;4.00;;;;;16.42;72.11;100956.53;2044060;28;2736735;-73
2024/04/05 00:27:08;;;;;;;;;6.00;4.00;;;;;16.44;71.69;100963.56;2026054;27;2752477;-73
2024/04/05 00:28:19;;;;;;;;;4.67;3.67;;;;;16.40;71.94;100953.13;2042645;27;2738822;-73
2024/04/05 00:29:30;;;;;;;;;3.00;3.00;;;;;16.40;71.80;100952.25;2046385;28;2745086;-73
2024/04/05 00:30:43;;;;;;;;;0.83;0.67;;;;;16.41;72.04;100956.63;2030220;27;2729487;-73
2024/04/05 00:31:53;;;;;;;;;3.00;3.00;;;;;16.40;71.78;100952.25;2004282;27;2739875;-73
2024/04/05 00:33:04;;;;;;;;;3.00;2.00;;;;;16.39;72.00;100950.56;2042983;28;2750256;-73
2024/04/05 00:34:16;;;;;;;;;3.00;3.00;;;;;16.38;71.67;100947.03;2052276;27;2732617;-73
2024/04/05 00:35:27;;;;;;;;;4.00;3.67;;;;;16.37;71.74;100944.47;2025223;27;2749267;-73
2024/04/05 00:36:39;;;;;;;;;3.00;3.00;;;;;16.38;71.72;100939.09;2051841;27;2749267;-73
2024/04/05 00:37:52;;;;;;;;;3.50;3.50;;;;;16.37;71.65;100937.34;2029141;27;2747163;-72
2024/04/05 00:39:05;;;;;;;;;6.00;3.83;;;;;16.34;71.79;100934.91;2028504;28;2748189;-72
2024/04/05 00:40:16;;;;;;;;;3.00;3.00;;;;;16.36;71.68;100929.50;2003495;28;2737829;-73
2024/04/05 00:41:27;;;;;;;;;6.00;4.67;;;;;16.35;71.62;100928.63;2052067;27;2747137;-73
2024/04/05 00:42:40;;;;;;;;;3.00;2.50;;;;;16.35;72.00;100930.41;2027716;27;2752851;-73
2024/04/05 00:43:51;;;;;;;;;3.00;3.00;;;;;16.33;71.80;100930.50;2000256;27;2744103;-73
2024/04/05 00:45:05;;;;;;;;;1.50;1.00;;;;;16.31;71.67;100922.66;2052625;28;2739883;-73
2024/04/05 00:46:15;;;;;;;;;4.00;3.00;;;;;16.35;71.93;100930.41;2002972;28;2754528;-73
2024/04/05 00:47:26;;;;;;;;;4.33;3.00;;;;;16.34;71.35;100926.06;2051645;27;2744518;-73
2024/04/05 00:48:39;;;;;;;;;3.83;3.00;;;;;16.33;71.71;100916.38;2028980;28;2736805;-73
2024/04/05 00:49:50;;;;;;;;;4.00;3.33;;;;;16.31;72.10;100911.19;2003431;28;2754455;-73
2024/04/05 00:51:05;;;;;;;;;3.00;2.67;;;;;16.29;71.83;100899.81;2051762;28;2740891;-73
2024/04/05 00:52:18;;;;;;;;;2.00;2.00;;;;;16.29;71.59;100905.09;2028712;28;2731515;-73
2024/04/05 00:53:32;;;;;;;;;2.67;2.67;;;;;16.31;71.82;100909.38;1996701;28;2749318;-73
2024/04/05 00:54:43;;;;;;;;;3.67;3.67;;;;;16.30;71.84;100909.44;2014836;28;2747138;-74
2024/04/05 00:55:56;;;;;;;;;4.00;3.00;;;;;16.29;71.74;100907.75;2047698;28;2737816;-73
2024/04/05 00:57:10;;;;;;;;;3.00;3.00;;;;;16.27;71.80;100918.44;2044674;28;2741920;-73
2024/04/05 00:58:21;;;;;;;;;5.33;4.00;;;;;16.28;71.66;100920.16;2003044;28;2742314;-73
2024/04/05 00:59:35;;;;;;;;;2.00;1.33;;;;;16.27;71.97;100915.78;2047753;28;2739857;-73
2024/04/05 01:00:48;;;;;;;;;5.67;3.17;;;;;16.26;71.62;100916.75;2027760;28;2745045;-73
2024/04/05 01:02:01;;;;;;;;;2.17;2.17;;;;;16.24;71.37;100908.00;2022274;28;2752349;-73
2024/04/05 01:03:12;;;;;;;;;2.67;1.33;;;;;16.24;71.72;100912.47;2001786;28;2735800;-73
2024/04/05 01:04:26;;;;;;;;;4.83;3.50;;;;;16.23;71.68;100916.91;2051297;28;2750266;-73
2024/04/05 01:05:39;;;;;;;;;3.17;3.17;;;;;16.23;71.30;100908.06;2029951;28;2727381;-73
2024/04/05 01:06:51;;;;;;;;;2.00;2.00;;;;;16.23;71.35;100908.94;1995269;28;2749844;-73
2024/04/05 01:08:07;;;;;;;;;3.83;2.83;;;;;16.21;71.73;100900.22;2050455;28;2741947;-73
2024/04/05 01:09:21;;;;;;;;;3.83;2.83;;;;;16.19;71.26;100899.44;2029676;27;2739281;-73
2024/04/05 01:10:31;;;;;;;;;4.00;3.00;;;;;16.18;71.74;100897.72;1997065;27;2752451;-73
2024/04/05 01:11:42;;;;;;;;;3.33;3.00;;;;;16.17;71.57;100888.91;2039766;28;2754492;-73
2024/04/05 01:13:04;;;;;;;;;1.33;1.33;;;;;16.17;71.84;100893.38;2051836;28;2724232;-73
2024/04/05 01:14:15;;;;;;;;;3.00;3.00;;;;;16.17;71.62;100896.03;2006437;27;2746130;-73
2024/04/05 01:15:26;;;;;;;;;4.00;3.00;;;;;16.16;71.71;100886.34;2060712;27;2739840;-73
2024/04/05 01:16:36;;;;;;;;;4.00;3.00;;;;;16.15;71.39;100882.00;2040944;27;2754426;-73
2024/04/05 01:17:50;;;;;;;;;2.00;2.00;;;;;16.15;71.32;100882.84;2051238;27;2738853;-73
2024/04/05 01:19:05;;;;;;;;;2.67;2.17;;;;;16.14;71.76;100885.59;2051659;28;2753454;-73
2024/04/05 01:20:20;;;;;;;;;2.67;2.67;;;;;16.13;71.54;100882.06;2003229;28;2751303;-73
2024/04/05 01:21:34;;;;;;;;;3.00;2.67;;;;;16.11;71.42;100883.94;2045946;27;2737822;-73
2024/04/05 01:23:00;;;;;;;;;1.50;1.50;;;;;16.09;71.77;100875.22;2029741;27;2733605;-73
2024/04/05 01:24:14;;;;;;;;;2.17;2.17;;;;;16.11;71.51;100883.94;2029606;27;2734660;-73
2024/04/05 01:25:24;;;;;;;;;5.00;3.00;;;;;16.10;71.60;100887.53;2001077;27;2754924;-73
2024/04/05 01:26:35;;;;;;;;;5.00;3.00;;;;;16.09;71.47;100883.19;2051000;28;2754408;-73
2024/04/05 01:27:49;;;;;;;;;3.00;3.00;;;;;16.11;71.59;100883.94;2043510;28;2746154;-73
2024/04/05 01:28:59;;;;;;;;;4.00;4.00;;;;;16.10;71.09;100873.44;1996800;28;2750280;-73
2024/04/05 01:30:10;;;;;;;;;3.00;3.00;;;;;16.09;71.48;100885.84;2044277;27;2754550;-73
2024/04/05 01:31:23;;;;;;;;;3.20;2.00;;;;;16.07;71.66;100877.13;2051262;27;2739849;-73
2024/04/05 01:32:33;;;;;;;;;4.00;2.00;;;;;16.06;71.27;100878.03;2025556;28;2750257;-73
2024/04/05 01:33:44;;;;;;;;;1.67;1.33;;;;;16.06;71.54;100880.69;2050327;28;2732558;-73
2024/04/05 01:34:55;;;;;;;;;2.33;2.33;;;;;16.07;71.67;100887.72;2026120;27;2752785;-73
2024/04/05 01:36:06;;;;;;;;;2.00;2.00;;;;;16.05;71.51;100884.31;2050891;27;2734640;-73
2024/04/05 01:37:18;;;;;;;;;4.00;3.00;;;;;16.03;71.50;100881.69;2027105;27;2750277;-73
2024/04/05 01:38:31;;;;;;;;;3.50;3.33;;;;;16.03;71.29;100878.16;2052839;27;2738811;-73
2024/04/05 01:39:44;;;;;;;;;3.50;2.17;;;;;16.00;71.38;100881.84;2028541;27;2733612;-73
2024/04/05 01:40:57;;;;;;;;;2.17;2.17;;;;;16.02;71.67;100889.72;2029389;27;2738822;-73
2024/04/05 01:42:10;;;;;;;;;3.00;3.00;;;;;16.00;71.45;100892.44;2029392;27;2750268;-73
2024/04/05 01:43:23;;;;;;;;;2.33;2.33;;;;;15.99;71.78;100896.03;2029366;28;2741353;-73
2024/04/05 01:44:37;;;;;;;;;3.33;3.00;;;;;16.00;71.55;100892.44;2022030;28;2750280;-73
2024/04/05 01:45:50;;;;;;;;;2.00;2.00;;;;;16.02;71.56;100884.44;2028467;28;2734711;-73
2024/04/05 01:47:03;;;;;;;;;1.50;1.50;;;;;16.01;71.15;100877.41;2022712;28;2731928;-73
2024/04/05 01:48:16;;;;;;;;;2.17;2.17;;;;;15.97;71.53;100876.72;2028677;27;2727348;-73
2024/04/05 01:49:29;;;;;;;;;2.83;2.83;;;;;15.97;71.49;100872.28;2028927;28;2739845;-73
2024/04/05 01:50:43;;;;;;;;;1.83;1.83;;;;;15.97;71.44;100882.88;2024335;27;2736752;-73
2024/04/05 01:51:56;;;;;;;;;3.67;2.00;;;;;15.98;71.13;100878.41;2029875;27;2733611;-73
2024/04/05 01:53:09;;;;;;;;;0.00;0.00;;;;;16.01;71.26;100880.03;2027941;27;2706520;-73
2024/04/05 01:54:22;;;;;;;;;2.17;2.17;;;;;15.97;71.31;100871.41;2045119;28;2729454;-73
2024/04/05 01:55:35;;;;;;;;;3.00;2.50;;;;;15.97;71.33;100868.78;2029621;27;2736751;-73
2024/04/05 01:56:46;;;;;;;;;2.67;2.67;;;;;15.96;71.23;100864.41;2001130;28;2752421;-73
2024/04/05 01:57:57;;;;;;;;;3.33;2.00;;;;;15.97;71.03;100864.34;2043322;27;2754887;-73
2024/04/05 01:59:07;;;;;;;;;3.00;2.33;;;;;15.97;71.28;100864.34;2040304;28;2744027;-73
2024/04/05 02:00:19;;;;;;;;;2.50;2.50;;;;;15.95;71.20;100855.59;2051807;28;2738811;-73
2024/04/05 02:01:33;;;;;;;;;2.67;2.67;;;;;15.94;71.18;100851.22;2052037;27;2750344;-73
2024/04/05 02:02:44;;;;;;;;;4.00;3.00;;;;;15.94;71.10;100848.59;2002463;28;2754973;-73
2024/04/05 02:03:55;;;;;;;;;3.33;2.33;;;;;15.94;71.18;100848.59;2050705;28;2741947;-73
2024/04/05 02:05:08;;;;;;;;;2.00;2.00;;;;;15.93;71.24;100843.34;2052514;28;2736731;-73
2024/04/05 02:06:21;;;;;;;;;1.17;1.17;;;;;15.92;71.06;100837.22;2030541;27;2726371;-73
2024/04/05 02:07:34;;;;;;;;;2.00;2.00;;;;;15.92;71.34;100839.88;2026535;28;2742474;-73
2024/04/05 02:08:48;;;;;;;;;2.00;2.00;;;;;15.91;71.21;100830.19;2029807;28;2737778;-73
2024/04/05 02:10:01;;;;;;;;;2.67;1.50;;;;;15.92;71.00;100831.91;2027211;28;2729425;-73
2024/04/05 02:11:11;;;;;;;;;3.00;3.00;;;;;15.92;71.27;100831.91;2003430;28;2754470;-73
2024/04/05 02:12:25;;;;;;;;;3.00;3.00;;;;;15.92;70.95;100831.91;2043951;27;2750288;-73
2024/04/05 02:13:38;;;;;;;;;5.17;3.50;;;;;15.91;71.50;100831.97;2051074;27;2754434;-73
2024/04/05 02:14:51;;;;;;;;;6.33;3.00;;;;;15.93;70.81;100832.75;2021832;28;2741943;-73
2024/04/05 02:16:02;;;;;;;;;4.67;3.33;;;;;15.93;71.09;100838.91;1998228;28;2754468;-73
2024/04/05 02:17:13;;;;;;;;;1.67;1.67;;;;;15.91;71.22;100832.84;2051749;27;2733670;-73
2024/04/05 02:18:24;;;;;;;;;4.67;3.00;;;;;15.93;71.17;100835.41;2002625;27;2754511;-73
2024/04/05 02:19:35;;;;;;;;;1.00;1.00;;;;;15.92;71.13;100823.97;2051719;27;2735676;-73
2024/04/05 02:20:56;;;;;;;;;3.33;2.67;;;;;15.91;71.09;100819.59;2024604;27;2754846;-73
2024/04/05 02:22:10;;;;;;;;;2.00;2.00;;;;;15.93;71.50;100828.31;2044865;28;2734630;-73
2024/04/05 02:23:21;;;;;;;;;3.00;2.00;;;;;15.92;70.93;100829.25;2001352;28;2746120;-73
2024/04/05 02:24:32;;;;;;;;;1.67;1.67;;;;;15.92;71.06;100826.63;2051925;27;2732637;-73
2024/04/05 02:25:46;;;;;;;;;4.50;2.33;;;;;15.93;71.17;100827.44;2023703;27;2734633;-73
2024/04/05 02:27:00;;;;;;;;;3.83;2.67;;;;;15.93;70.97;100825.66;2021303;28;2746101;-73
2024/04/05 02:28:13;;;;;;;;;3.83;2.67;;;;;15.92;71.13;100816.00;2027820;28;2754915;-73
2024/04/05 02:29:23;;;;;;;;;4.67;2.00;;;;;15.92;70.80;100821.31;2002850;27;2752373;-73
2024/04/05 02:30:38;;;;;;;;;3.00;3.00;;;;;15.92;70.95;100829.25;2039762;28;2754482;-73
2024/04/05 02:31:51;;;;;;;;;2.00;1.17;;;;;15.91;71.14;100824.88;2052520;27;2727413;-73
2024/04/05 02:33:05;;;;;;;;;3.00;2.50;;;;;15.91;70.92;100830.19;2028494;28;2739893;-73
2024/04/05 02:34:20;;;;;;;;;2.67;2.17;;;;;15.91;70.64;100811.63;2028546;28;2729432;-73
2024/04/05 02:35:30;;;;;;;;;4.00;2.00;;;;;15.90;70.70;100817.88;1999713;28;2750296;-73
2024/04/05 02:36:41;;;;;;;;;2.00;2.00;;;;;15.91;70.74;100819.59;2050063;27;2737810;-73
2024/04/05 02:37:51;;;;;;;;;2.00;2.00;;;;;15.91;70.58;100818.72;1998207;27;2745099;-73
2024/04/05 02:39:07;;;;;;;;;2.00;2.00;;;;;15.91;70.76;100811.63;2052900;27;2734081;-73
2024/04/05 02:40:20;;;;;;;;;1.17;1.17;;;;;15.89;70.95;100816.16;2053993;27;2742970;-73
2024/04/05 02:41:33;;;;;;;;;2.17;1.00;;;;;15.91;70.99;100811.63;2026049;27;2726366;-73
2024/04/05 02:42:44;;;;;;;;;2.33;2.33;;;;;15.90;70.71;100812.56;2004836;27;2752356;-73
2024/04/05 02:43:55;;;;;;;;;3.00;1.33;;;;;15.89;70.70;100813.53;2052059;28;2735011;-73
2024/04/05 02:45:08;;;;;;;;;3.17;3.00;;;;;15.90;70.71;100815.22;2047324;28;2744026;-73
2024/04/05 02:46:18;;;;;;;;;4.00;2.00;;;;;15.89;70.75;100816.16;2003152;28;2744039;-73
2024/04/05 02:47:29;;;;;;;;;4.00;3.00;;;;;15.88;70.64;100798.53;2044773;28;2740898;-73
2024/04/05 02:48:40;;;;;;;;;4.00;2.00;;;;;15.88;70.29;100800.34;2026832;28;2754479;-73
2024/04/05 02:49:53;;;;;;;;;2.33;2.33;;;;;15.88;70.96;100793.25;2041993;27;2754536;-73
2024/04/05 02:51:06;;;;;;;;;2.67;2.67;;;;;15.88;70.65;100785.28;2054329;28;2733599;-73
2024/04/05 02:52:17;;;;;;;;;6.00;2.67;;;;;15.86;70.91;100777.44;2004399;28;2756534;-73
2024/04/05 02:53:28;;;;;;;;;2.00;2.00;;;;;15.88;70.64;100782.63;2052579;28;2748177;-73
2024/04/05 02:54:41;;;;;;;;;2.33;2.33;;;;;15.88;70.74;100776.50;2029854;28;2746094;-73
2024/04/05 02:55:52;;;;;;;;;3.33;3.33;;;;;15.89;70.56;100779.06;2003857;28;2752384;-73
2024/04/05 02:57:04;;;;;;;;;1.50;1.50;;;;;15.87;70.48;100773.00;2053396;27;2731535;-73
2024/04/05 02:58:17;;;;;;;;;4.50;3.83;;;;;15.88;70.67;100768.56;2052849;27;2738802;-73
2024/04/05 02:59:30;;;;;;;;;3.50;2.17;;;;;15.87;70.57;100770.34;2030955;27;2737758;-73
2024/04/05 03:00:46;;;;;;;;;1.83;1.83;;;;;15.90;70.52;100775.44;2028364;28;2735705;-73
2024/04/05 03:01:59;;;;;;;;;2.17;1.50;;;;;15.90;70.63;100769.31;2030415;28;2737766;-73
2024/04/05 03:03:09;;;;;;;;;3.33;2.67;;;;;15.89;70.51;100767.59;2002321;28;2752356;-73
2024/04/05 03:04:20;;;;;;;;;3.00;2.33;;;;;15.89;70.75;100763.16;2053275;27;2730493;-73
2024/04/05 03:05:31;;;;;;;;;3.00;3.00;;;;;15.88;70.70;100756.13;2022858;27;2754879;-73
2024/04/05 03:06:42;;;;;;;;;4.67;4.00;;;;;15.90;70.76;100759.56;2037059;27;2754539;-73
2024/04/05 03:07:53;;;;;;;;;2.00;2.00;;;;;15.88;70.75;100755.31;2052786;27;2740381;-73
2024/04/05 03:09:06;;;;;;;;;2.33;2.33;;;;;15.90;70.53;100753.41;2029593;27;2741936;-73
2024/04/05 03:10:19;;;;;;;;;2.50;2.50;;;;;15.89;70.45;100757.84;2026067;28;2736727;-73
2024/04/05 03:11:30;;;;;;;;;2.33;2.00;;;;;15.89;70.89;100759.66;1998495;27;2751909;-73
2024/04/05 03:12:42;;;;;;;;;1.40;1.40;;;;;15.89;70.61;100763.16;2053387;27;2731548;-73
2024/04/05 03:13:55;;;;;;;;;6.00;3.00;;;;;15.90;70.35;100766.66;2052507;27;2752390;-73
2024/04/05 03:15:07;;;;;;;;;3.00;3.00;;;;;15.89;70.62;100763.16;2003423;27;2744023;-73
2024/04/05 03:16:20;;;;;;;;;2.33;2.33;;;;;15.87;70.49;100759.75;2050572;28;2750262;-73
2024/04/05 03:17:33;;;;;;;;;3.67;3.67;;;;;15.87;70.52;100751.78;2030006;28;2741948;-73
2024/04/05 03:18:46;;;;;;;;;2.83;1.83;;;;;15.87;70.06;100751.78;2027613;28;2731566;-73
2024/04/05 03:19:59;;;;;;;;;2.83;2.83;;;;;15.86;70.30;100748.28;2029650;27;2745053;-73
2024/04/05 03:21:13;;;;;;;;;1.50;1.50;;;;;15.84;70.47;100738.69;2028308;28;2710756;-73
2024/04/05 03:22:23;;;;;;;;;2.00;2.00;;;;;15.85;70.31;100740.44;2004222;28;2750285;-73
2024/04/05 03:23:34;;;;;;;;;4.33;3.67;;;;;15.84;70.43;100738.69;2043122;28;2754601;-73
2024/04/05 03:24:45;;;;;;;;;2.00;2.00;;;;;15.86;70.53;100731.53;2041622;27;2754835;-73
2024/04/05 03:25:57;;;;;;;;;2.25;1.75;;;;;15.83;70.58;100721.94;2050549;27;2737774;-73
2024/04/05 03:27:07;;;;;;;;;3.00;3.00;;;;;15.83;70.44;100718.44;2021303;28;2752344;-73
2024/04/05 03:28:18;;;;;;;;;2.33;2.00;;;;;15.83;70.51;100721.09;2052385;28;2746122;-73
2024/04/05 03:29:29;;;;;;;;;2.00;2.00;;;;;15.82;70.27;100716.75;2001588;28;2737775;-73
2024/04/05 03:30:40;;;;;;;;;3.00;3.00;;;;;15.83;70.48;100721.09;2044378;27;3470107;-73
2024/04/05 03:31:51;;;;;;;;;2.50;2.00;;;;;15.81;70.27;100713.22;2063389;27;2740898;-73
2024/04/05 03:33:05;;;;;;;;;2.50;2.50;;;;;15.82;70.53;100714.09;2052369;28;2732584;-73
2024/04/05 03:34:17;;;;;;;;;4.33;3.67;;;;;15.79;70.28;100712.47;1994809;28;2747200;-73
2024/04/05 03:35:30;;;;;;;;;3.00;3.00;;;;;15.79;70.30;100707.16;2044860;28;2752377;-73
2024/04/05 03:36:41;;;;;;;;;4.00;4.00;;;;;15.79;70.66;100709.81;2001004;27;2754451;-72
2024/04/05 03:37:55;;;;;;;;;2.33;2.33;;;;;15.80;70.71;100715.97;2041746;27;2750289;-72
2024/04/05 03:39:10;;;;;;;;;2.33;2.33;;;;;15.79;70.32;100708.94;2045220;28;2734632;-72
2024/04/05 03:40:21;;;;;;;;;4.00;3.00;;;;;15.79;70.17;100719.56;2001832;27;2752442;-72
2024/04/05 03:41:31;;;;;;;;;4.00;2.00;;;;;15.75;70.72;100710.94;2023991;28;2741936;-73
2024/04/05 03:42:42;;;;;;;;;4.00;4.00;;;;;15.75;70.44;100714.41;2046441;28;2742044;-73
2024/04/05 03:43:53;;;;;;;;;3.00;3.00;;;;;15.75;70.36;100718.88;1996216;28;2754570;-73
2024/04/05 03:45:05;;;;;;;;;4.20;4.00;;;;;15.73;70.58;100708.34;2052814;27;2739889;-73
2024/04/05 03:46:16;;;;;;;;;2.33;2.33;;;;;15.72;70.25;100709.31;2023258;28;2752337;-73
2024/04/05 03:47:27;;;;;;;;;2.00;2.00;;;;;15.71;70.52;100698.78;2037038;28;2730557;-73
2024/04/05 03:48:38;;;;;;;;;2.33;2.00;;;;;15.71;70.85;100704.94;2041176;27;2754427;-73
2024/04/05 03:49:49;;;;;;;;;2.33;2.33;;;;;15.69;70.46;100695.34;2041257;27;2754475;-73
2024/04/05 03:50:59;;;;;;;;;4.00;2.33;;;;;15.66;70.40;100698.16;2036495;28;2744003;-73
2024/04/05 03:52:10;;;;;;;;;4.33;3.33;;;;;15.65;70.25;100689.41;2039342;27;2741949;-73
2024/04/05 03:53:21;;;;;;;;;2.33;2.33;;;;;15.65;70.09;100702.63;2052371;27;2745094;-73
2024/04/05 03:54:35;;;;;;;;;2.33;2.33;;;;;15.65;70.38;100700.00;2029936;28;2734676;-73
2024/04/05 03:55:45;;;;;;;;;3.00;2.00;;;;;15.60;70.25;100694.94;2002267;28;2746139;-73
2024/04/05 03:56:56;;;;;;;;;1.67;1.67;;;;;15.59;70.63;100685.28;2051682;28;2735710;-73
2024/04/05 03:58:09;;;;;;;;;3.00;2.00;;;;;15.60;70.44;100683.50;2052027;28;2732564;-73
2024/04/05 03:59:22;;;;;;;;;2.83;2.50;;;;;15.58;70.55;100674.78;2053218;28;2739859;-73
2024/04/05 04:00:35;;;;;;;;;1.67;1.67;;;;;15.58;70.41;100685.38;2025103;28;2747160;-73
2024/04/05 04:01:48;;;;;;;;;6.00;2.00;;;;;15.55;70.63;100675.81;1997964;28;2752392;-73
2024/04/05 04:03:02;;;;;;;;;2.00;2.00;;;;;15.57;70.66;100675.72;2044450;28;2738116;-73
2024/04/05 04:04:15;;;;;;;;;3.00;2.33;;;;;15.56;70.51;100676.63;2029465;28;2733614;-73
2024/04/05 04:05:28;;;;;;;;;2.50;2.33;;;;;15.53;70.58;100678.50;2028588;27;2729440;-73
2024/04/05 04:06:39;;;;;;;;;3.00;3.00;;;;;15.53;70.39;100672.38;2004050;28;2754523;-73
2024/04/05 04:07:50;;;;;;;;;2.00;2.00;;;;;15.52;70.74;100674.19;2043338;28;2740883;-73
2024/04/05 04:09:00;;;;;;;;;3.00;3.00;;;;;15.49;70.77;100665.53;2003002;28;2754503;-73
2024/04/05 04:10:12;;;;;;;;;1.00;1.00;;;;;15.50;70.74;100661.94;2049937;28;2725373;-73
2024/04/05 04:11:25;;;;;;;;;2.67;2.67;;;;;15.53;70.85;100677.69;2045916;28;2737817;-73
2024/04/05 04:12:39;;;;;;;;;2.67;2.00;;;;;15.50;70.92;100662.81;2027887;27;2735677;-73
2024/04/05 04:13:49;;;;;;;;;3.00;3.00;;;;;15.49;70.84;100660.22;1999507;28;2752333;-73
2024/04/05 04:15:01;;;;;;;;;4.75;3.25;;;;;15.48;70.94;100655.88;2044512;28;2748673;-73
2024/04/05 04:16:12;;;;;;;;;2.33;2.33;;;;;15.48;70.82;100664.66;2026224;27;2750284;-73
2024/04/05 04:17:22;;;;;;;;;3.00;2.00;;;;;15.51;70.80;100669.81;2039524;28;2754501;-73
2024/04/05 04:18:34;;;;;;;;;2.00;2.00;;;;;15.49;70.87;100663.75;2051009;28;2751341;-73
2024/04/05 04:19:44;;;;;;;;;2.00;2.00;;;;;15.49;71.01;100661.09;2002701;28;2746189;-73
2024/04/05 04:20:56;;;;;;;;;3.00;3.00;;;;;15.47;70.71;100657.69;2051093;28;2748170;-73
2024/04/05 04:22:09;;;;;;;;;1.67;1.00;;;;;15.47;71.02;100648.88;2053694;28;2739845;-73
2024/04/05 04:23:22;;;;;;;;;2.67;2.67;;;;;15.47;71.25;100652.38;2029196;27;2733942;-73
2024/04/05 04:24:33;;;;;;;;;3.00;3.00;;;;;15.45;70.82;100638.38;2003109;27;3470056;-73
2024/04/05 04:25:45;;;;;;;;;2.67;2.33;;;;;15.47;70.98;100639.13;2039628;27;2752388;-73
2024/04/05 04:26:56;;;;;;;;;3.00;2.00;;;;;15.46;71.08;100640.06;2022187;28;2754442;-73
2024/04/05 04:28:09;;;;;;;;;4.00;2.67;;;;;15.47;71.10;100640.94;2035253;28;2750341;-73
2024/04/05 04:29:23;;;;;;;;;5.50;2.00;;;;;15.46;70.71;100642.72;2051009;28;2754467;-73
2024/04/05 04:30:37;;;;;;;;;1.33;1.00;;;;;15.45;70.83;100643.66;2028211;28;2738904;-73
2024/04/05 04:31:50;;;;;;;;;2.67;2.67;;;;;15.44;70.55;100639.31;2030817;27;2750256;-73
2024/04/05 04:33:04;;;;;;;;;3.83;2.83;;;;;15.43;70.87;100634.09;2040528;27;2742567;-73
2024/04/05 04:34:17;;;;;;;;;4.67;4.00;;;;;15.41;71.02;100627.09;2031462;27;2740911;-73
2024/04/05 04:35:30;;;;;;;;;3.00;3.00;;;;;15.39;71.00;100633.41;2025430;27;2748237;-73
2024/04/05 04:36:41;;;;;;;;;3.00;3.00;;;;;15.41;70.92;100620.91;1997450;28;2754531;-73
2024/04/05 04:37:54;;;;;;;;;3.67;3.67;;;;;15.41;70.88;100623.56;2044885;27;2747164;-73
2024/04/05 04:39:08;;;;;;;;;3.00;2.67;;;;;15.41;70.94;100619.13;2027216;27;2754466;-73
2024/04/05 04:40:19;;;;;;;;;3.00;2.00;;;;;15.41;71.02;100620.91;2024965;27;2744013;-73
2024/04/05 04:41:31;;;;;;;;;4.00;3.60;;;;;15.39;70.95;100617.50;2045042;28;2745094;-73
2024/04/05 04:42:42;;;;;;;;;2.67;2.00;;;;;15.39;71.13;100602.47;2002269;27;2753401;-73
2024/04/05 04:43:55;;;;;;;;;2.00;2.00;;;;;15.40;70.77;100612.16;2051465;28;2741932;-73
2024/04/05 04:45:10;;;;;;;;;3.17;3.00;;;;;15.41;71.05;100605.03;2029255;28;2741924;-73
2024/04/05 04:46:21;;;;;;;;;3.33;3.33;;;;;15.41;70.83;100602.38;2003679;28;2750330;-73
2024/04/05 04:47:32;;;;;;;;;4.00;4.00;;;;;15.41;70.79;100605.03;2040835;27;2754455;-73
2024/04/05 04:48:42;;;;;;;;;4.67;3.00;;;;;15.44;70.75;100602.22;2027761;28;2754439;-73
2024/04/05 04:49:54;;;;;;;;;1.33;1.33;;;;;15.41;71.01;100597.94;2051619;27;2731558;-73
2024/04/05 04:51:07;;;;;;;;;3.50;3.50;;;;;15.45;70.84;100608.38;2029653;28;2748215;-73
2024/04/05 04:52:20;;;;;;;;;2.17;2.17;;;;;15.45;71.02;100601.28;2021835;28;2754437;-73
2024/04/05 04:53:33;;;;;;;;;2.67;2.33;;;;;15.44;71.01;100602.22;2028183;28;2748173;-73
2024/04/05 04:54:47;;;;;;;;;3.00;3.00;;;;;15.44;70.98;100594.28;2028270;28;2752373;-73
2024/04/05 04:56:00;;;;;;;;;6.17;4.00;;;;;15.44;70.88;100594.28;2027432;28;2738812;-73
2024/04/05 04:57:13;;;;;;;;;4.00;1.00;;;;;15.45;71.04;100596.00;2021507;28;2736792;-73
2024/04/05 04:58:29;;;;;;;;;2.83;2.83;;;;;15.42;71.17;100588.22;2024624;28;2736770;-73
2024/04/05 04:59:39;;;;;;;;;3.00;3.00;;;;;15.45;71.07;100584.53;2002401;28;2754454;-73
2024/04/05 05:00:50;;;;;;;;;3.00;2.00;;;;;15.44;70.89;100591.63;2043100;27;2752340;-73
2024/04/05 05:02:01;;;;;;;;;3.00;3.00;;;;;15.44;70.87;100594.28;2051008;28;2746142;-73
2024/04/05 05:03:14;;;;;;;;;3.33;2.00;;;;;15.42;70.84;100590.88;2029723;28;2741940;-73
2024/04/05 05:04:25;;;;;;;;;3.67;3.67;;;;;15.42;70.63;100604.09;2002934;27;2734758;-73
2024/04/05 05:05:36;;;;;;;;;2.67;2.67;;;;;15.43;71.00;100597.88;2041266;27;2754467;-73
2024/04/05 05:06:49;;;;;;;;;1.75;1.50;;;;;15.41;70.85;100589.16;2051021;28;2745060;-73
2024/04/05 05:08:00;;;;;;;;;4.67;3.00;;;;;15.41;70.93;100590.00;2027168;27;2754490;-73
2024/04/05 05:09:11;;;;;;;;;3.33;3.33;;;;;15.40;70.74;100598.91;2058255;27;2748162;-73
2024/04/05 05:10:24;;;;;;;;;2.83;2.83;;;;;15.40;71.07;100598.03;2052390;27;2740895;-73
2024/04/05 05:11:34;;;;;;;;;3.00;3.00;;;;;15.39;70.95;100585.72;2001730;27;2752401;-73
2024/04/05 05:12:45;;;;;;;;;4.33;3.00;;;;;15.37;70.90;100588.47;2040845;28;2754427;-73
2024/04/05 05:13:56;;;;;;;;;5.67;4.33;;;;;15.39;71.09;100602.47;2051040;28;2738810;-73
2024/04/05 05:15:07;;;;;;;;;2.00;2.00;;;;;15.38;70.78;100594.63;2003284;28;2752360;-73
2024/04/05 05:16:18;;;;;;;;;3.33;2.33;;;;;15.38;70.65;100599.94;2040147;27;2750274;-73
2024/04/05 05:17:29;;;;;;;;;4.00;3.33;;;;;15.38;71.12;100603.41;2026575;28;2754551;-73
2024/04/05 05:18:41;;;;;;;;;3.50;3.50;;;;;15.38;71.01;100600.75;2050248;28;2744008;-73
2024/04/05 05:19:51;;;;;;;;;5.00;3.00;;;;;15.39;70.98;100596.31;2000713;28;2748192;-73
2024/04/05 05:21:02;;;;;;;;;5.00;3.00;;;;;15.39;70.90;100601.63;2041659;28;2754467;-73
2024/04/05 05:22:14;;;;;;;;;3.00;3.00;;;;;15.38;70.63;100599.94;2050121;27;2754432;-73
2024/04/05 05:23:24;;;;;;;;;2.00;2.00;;;;;15.40;71.23;100603.34;2024778;28;2753496;-73
2024/04/05 05:24:35;;;;;;;;;2.00;2.00;;;;;15.41;71.14;100610.34;2035722;28;2750792;-73
2024/04/05 05:25:48;;;;;;;;;5.00;3.33;;;;;15.38;71.07;100605.22;2038177;28;2750261;-73
2024/04/05 05:27:01;;;;;;;;;3.17;3.17;;;;;15.38;70.92;100607.88;2048607;27;2752408;-73
2024/04/05 05:28:15;;;;;;;;;3.17;3.17;;;;;15.37;71.16;100607.00;2021418;28;2737810;-73